createdAt,value
2024-01-18T00:01:52.484Z,12.03
2024-01-18T00:04:19.276Z,12.43
2024-01-18T00:06:46.108Z,12.23
2024-01-18T00:09:12.984Z,11.27
2024-01-18T00:11:39.529Z,11.97
2024-01-18T00:14:06.562Z,12.63
2024-01-18T00:16:34.281Z,12.53
2024-01-18T00:19:01.123Z,12.33
2024-01-18T00:21:28.028Z,12.03
2024-01-18T00:23:54.635Z,12.87
2024-01-18T00:26:21.494Z,11.93
2024-01-18T00:28:48.185Z,12.40
2024-01-18T00:31:15.331Z,12.43
2024-01-18T00:33:41.944Z,12.57
2024-01-18T00:36:08.786Z,12.70
2024-01-18T00:38:35.367Z,11.83
2024-01-18T00:41:01.860Z,12.40
2024-01-18T00:43:28.449Z,12.27
2024-01-18T00:45:55.030Z,11.30
2024-01-18T00:48:21.819Z,12.07
2024-01-18T00:50:48.381Z,12.03
2024-01-18T00:53:14.838Z,12.37
2024-01-18T00:55:41.445Z,12.23
2024-01-18T00:58:08.070Z,12.87
2024-01-18T01:00:34.861Z,12.30
2024-01-18T01:03:01.501Z,12.50
2024-01-18T01:05:28.053Z,11.27
2024-01-18T01:07:54.610Z,11.70
2024-01-18T01:10:21.084Z,12.73
2024-01-18T01:12:48.205Z,12.83
2024-01-18T01:15:14.874Z,11.67
2024-01-18T01:17:41.606Z,11.63
2024-01-18T01:20:12.027Z,12.10
2024-01-18T01:22:38.582Z,12.20
2024-01-18T01:25:05.595Z,12.07
2024-01-18T01:27:32.153Z,11.67
2024-01-18T01:29:58.709Z,13.07
2024-01-18T01:32:25.314Z,11.27
2024-01-18T01:34:52.563Z,12.20
2024-01-18T01:37:19.422Z,11.60
2024-01-18T01:39:47.354Z,12.10
2024-01-18T01:42:14.081Z,11.97
2024-01-18T01:44:40.514Z,11.77
2024-01-18T01:47:07.062Z,12.27
2024-01-18T01:49:33.963Z,11.70
2024-01-18T01:52:01.698Z,12.60
2024-01-18T01:54:30.878Z,12.17
2024-01-18T01:56:59.858Z,12.03
2024-01-18T01:59:28.817Z,12.67
2024-01-18T02:01:55.621Z,12.30
2024-01-18T02:04:22.614Z,12.17
2024-01-18T02:06:52.799Z,12.13
2024-01-18T02:09:20.561Z,11.80
2024-01-18T02:11:47.437Z,12.40
2024-01-18T02:14:14.154Z,12.50
2024-01-18T02:16:41.020Z,12.27
2024-01-18T02:19:08.237Z,12.43
2024-01-18T02:21:35.106Z,12.57
2024-01-18T02:24:14.241Z,12.03
2024-01-18T02:26:40.788Z,11.33
2024-01-18T02:29:07.613Z,12.23
2024-01-18T02:31:34.171Z,12.33
2024-01-18T02:34:01.152Z,11.23
2024-01-18T02:36:27.850Z,11.60
2024-01-18T02:38:54.710Z,12.37
2024-01-18T02:41:21.508Z,12.57
2024-01-18T02:43:49.705Z,12.40
2024-01-18T02:46:18.480Z,11.17
2024-01-18T02:48:45.897Z,11.67
2024-01-18T02:51:12.519Z,11.43
2024-01-18T02:53:39.108Z,12.17
2024-01-18T02:56:06.562Z,12.47
2024-01-18T02:58:33.145Z,11.50
2024-01-18T03:00:59.654Z,12.20
2024-01-18T03:03:26.587Z,11.13
2024-01-18T03:05:53.196Z,11.03
2024-01-18T03:08:19.775Z,10.93
2024-01-18T03:10:47.717Z,10.40
2024-01-18T03:13:14.510Z,11.37
2024-01-18T03:15:41.058Z,12.07
2024-01-18T03:18:08.365Z,10.47
2024-01-18T03:20:35.816Z,11.17
2024-01-18T03:23:02.539Z,11.50
2024-01-18T03:25:29.139Z,11.30
2024-01-18T03:27:55.569Z,10.97
2024-01-18T03:30:22.613Z,11.37
2024-01-18T03:32:49.241Z,11.07
2024-01-18T03:35:15.897Z,12.03
2024-01-18T03:37:42.396Z,11.00
2024-01-18T03:40:09.857Z,10.83
2024-01-18T03:42:40.821Z,11.20
2024-01-18T03:45:08.067Z,10.30
2024-01-18T03:47:34.828Z,11.07
2024-01-18T03:50:01.549Z,10.37
2024-01-18T03:52:28.482Z,10.90
2024-01-18T03:54:54.982Z,10.70
2024-01-18T03:57:21.601Z,10.50
2024-01-18T03:59:48.923Z,10.23
2024-01-18T04:02:16.304Z,10.20
2024-01-18T04:04:42.954Z,9.93
2024-01-18T04:07:09.521Z,10.13
2024-01-18T04:09:36.199Z,10.73
2024-01-18T04:12:03.013Z,10.13
2024-01-18T04:14:29.672Z,9.90
2024-01-18T04:16:56.192Z,9.40
2024-01-18T04:19:22.834Z,10.63
2024-01-18T04:21:49.383Z,10.30
2024-01-18T04:24:16.015Z,10.33
2024-01-18T04:26:42.590Z,9.37
2024-01-18T04:29:09.074Z,9.93
2024-01-18T04:31:35.606Z,9.57
2024-01-18T04:34:02.311Z,10.00
2024-01-18T04:36:29.824Z,9.23
2024-01-18T04:38:56.350Z,8.80
2024-01-18T04:41:22.821Z,9.00
2024-01-18T04:43:49.333Z,9.50
2024-01-18T04:46:15.866Z,9.07
2024-01-18T04:48:44.033Z,8.57
2024-01-18T04:51:10.660Z,9.30
2024-01-18T04:53:37.171Z,9.30
2024-01-18T04:56:04.477Z,9.00
2024-01-18T04:58:31.053Z,9.13
2024-01-18T05:00:58.091Z,9.17
2024-01-18T05:03:26.355Z,9.53
2024-01-18T05:05:53.014Z,9.37
2024-01-18T05:08:19.663Z,9.27
2024-01-18T05:10:47.506Z,9.23
2024-01-18T05:13:14.148Z,8.57
2024-01-18T05:15:40.914Z,8.80
2024-01-18T05:18:08.328Z,8.97
2024-01-18T05:20:34.987Z,8.40
2024-01-18T05:23:01.626Z,9.50
2024-01-18T05:25:28.144Z,8.67
2024-01-18T05:27:54.748Z,9.07
2024-01-18T05:30:24.937Z,8.97
2024-01-18T05:32:51.755Z,8.17
2024-01-18T05:35:18.413Z,8.40
2024-01-18T05:37:44.975Z,8.07
2024-01-18T05:40:11.991Z,8.57
2024-01-18T05:42:39.067Z,7.87
2024-01-18T05:45:07.246Z,7.77
2024-01-18T05:47:33.976Z,8.43
2024-01-18T05:50:00.800Z,8.53
2024-01-18T05:52:29.243Z,7.57
2024-01-18T05:54:55.805Z,8.07
2024-01-18T05:57:22.458Z,7.10
2024-01-18T05:59:49.019Z,7.70
2024-01-18T06:02:15.753Z,7.33
2024-01-18T06:04:42.455Z,7.77
2024-01-18T06:07:09.180Z,8.10
2024-01-18T06:09:35.782Z,7.03
2024-01-18T06:12:02.437Z,7.27
2024-01-18T06:14:29.418Z,7.80
2024-01-18T06:16:56.667Z,7.17
2024-01-18T06:19:23.319Z,7.33
2024-01-18T06:21:50.013Z,7.10
2024-01-18T06:24:16.617Z,7.10
2024-01-18T06:26:43.290Z,7.43
2024-01-18T06:29:10.841Z,7.00
2024-01-18T06:31:37.564Z,6.50
2024-01-18T06:34:06.293Z,7.00
2024-01-18T06:36:33.079Z,6.73
2024-01-18T06:38:59.854Z,7.03
2024-01-18T06:41:27.161Z,7.10
2024-01-18T06:43:54.236Z,6.83
2024-01-18T06:46:20.864Z,6.80
2024-01-18T06:48:54.818Z,6.67
2024-01-18T06:51:24.672Z,6.67
2024-01-18T06:53:52.316Z,5.97
2024-01-18T06:56:18.871Z,6.93
2024-01-18T06:58:45.621Z,6.17
2024-01-18T07:01:14.432Z,6.23
2024-01-18T07:03:42.787Z,6.37
2024-01-18T07:06:10.507Z,6.37
2024-01-18T07:08:39.985Z,6.33
2024-01-18T07:11:06.604Z,5.80
2024-01-18T07:13:33.393Z,6.00
2024-01-18T07:16:00.057Z,6.10
2024-01-18T07:18:27.626Z,5.63
2024-01-18T07:20:54.398Z,5.70
2024-01-18T07:23:21.018Z,5.60
2024-01-18T07:25:47.940Z,5.37
2024-01-18T07:28:15.011Z,5.90
2024-01-18T07:30:41.677Z,5.90
2024-01-18T07:33:08.245Z,6.13
2024-01-18T07:35:34.935Z,5.77
2024-01-18T07:38:01.750Z,5.90
2024-01-18T07:40:28.387Z,5.57
2024-01-18T07:42:55.327Z,5.47
2024-01-18T07:45:22.364Z,6.00
2024-01-18T07:47:49.449Z,5.70
2024-01-18T07:50:29.102Z,5.23
2024-01-18T07:53:01.311Z,6.03
2024-01-18T07:55:27.868Z,5.43
2024-01-18T07:57:55.348Z,5.30
2024-01-18T08:00:22.305Z,5.27
2024-01-18T08:02:48.957Z,5.63
2024-01-18T08:05:15.590Z,4.63
2024-01-18T08:07:42.096Z,5.03
2024-01-18T08:10:12.717Z,5.30
2024-01-18T08:12:39.544Z,4.77
2024-01-18T08:15:06.645Z,5.23
2024-01-18T08:17:34.206Z,5.70
2024-01-18T08:20:01.187Z,5.20
2024-01-18T08:22:28.665Z,4.50
2024-01-18T08:24:55.199Z,5.00
2024-01-18T08:27:21.836Z,4.97
2024-01-18T08:29:48.538Z,5.10
2024-01-18T08:32:15.156Z,5.50
2024-01-18T08:34:44.747Z,5.00
2024-01-18T08:37:12.537Z,5.13
2024-01-18T08:39:40.109Z,5.50
2024-01-18T08:42:07.513Z,5.30
2024-01-18T08:44:34.167Z,5.03
2024-01-18T08:47:00.839Z,5.67
2024-01-18T08:49:27.611Z,5.50
2024-01-18T08:51:54.451Z,5.40
2024-01-18T08:54:24.129Z,5.70
2024-01-18T08:56:50.741Z,5.37
2024-01-18T08:59:17.300Z,5.93
2024-01-18T09:01:43.954Z,5.73
2024-01-18T09:04:10.809Z,5.80
2024-01-18T09:06:38.517Z,6.50
2024-01-18T09:09:05.937Z,5.60
2024-01-18T09:11:33.237Z,5.63
2024-01-18T09:13:59.718Z,5.50
2024-01-18T09:16:26.240Z,5.60
2024-01-18T09:19:01.124Z,6.23
2024-01-18T09:21:45.099Z,6.20
2024-01-18T09:24:12.304Z,6.00
2024-01-18T09:26:39.108Z,5.63
2024-01-18T09:29:06.204Z,6.07
2024-01-18T09:31:38.905Z,5.77
2024-01-18T09:34:09.458Z,5.03
2024-01-18T09:36:36.164Z,5.73
2024-01-18T09:39:02.786Z,5.23
2024-01-18T09:41:30.833Z,5.53
2024-01-18T09:44:07.011Z,5.57
2024-01-18T09:46:33.644Z,5.03
2024-01-18T09:49:04.140Z,6.07
2024-01-18T09:51:32.816Z,5.50
2024-01-18T09:54:02.055Z,5.43
2024-01-18T09:56:30.390Z,6.20
2024-01-18T09:58:58.333Z,5.87
2024-01-18T10:01:26.249Z,5.50
2024-01-18T10:03:53.396Z,5.30
2024-01-18T10:06:20.906Z,5.07
2024-01-18T10:08:49.008Z,5.10
2024-01-18T10:11:15.604Z,4.87
2024-01-18T10:13:52.997Z,5.30
2024-01-18T10:16:27.402Z,4.83
2024-01-18T10:18:55.690Z,4.93
2024-01-18T10:21:24.318Z,4.70
2024-01-18T10:23:52.671Z,5.03
2024-01-18T10:26:20.011Z,5.07
2024-01-18T10:28:47.477Z,5.10
2024-01-18T10:31:14.339Z,4.80
2024-01-18T10:33:41.438Z,4.10
2024-01-18T10:36:08.204Z,4.10
2024-01-18T10:38:36.398Z,3.47
2024-01-18T10:41:03.902Z,3.87
2024-01-18T10:43:31.473Z,3.67
2024-01-18T10:45:59.367Z,3.50
2024-01-18T10:48:31.193Z,3.40
2024-01-18T10:50:58.978Z,3.27
2024-01-18T10:53:35.332Z,2.87
2024-01-18T10:56:02.651Z,3.03
2024-01-18T10:58:30.630Z,3.00
2024-01-18T11:00:58.249Z,3.00
2024-01-18T11:03:25.251Z,3.00
2024-01-18T11:05:52.284Z,2.80
2024-01-18T11:08:18.987Z,2.33
2024-01-18T11:10:47.965Z,2.80
2024-01-18T11:13:19.155Z,2.27
2024-01-18T11:15:47.325Z,2.10
2024-01-18T11:18:15.472Z,2.10
2024-01-18T11:21:00.769Z,2.10
2024-01-18T11:23:29.181Z,1.80
2024-01-18T11:25:56.133Z,1.70
2024-01-18T11:28:24.358Z,1.55
2024-01-18T11:30:51.386Z,1.70
2024-01-18T11:33:18.040Z,1.48
2024-01-18T11:35:45.178Z,1.83
2024-01-18T11:38:34.220Z,1.15
2024-01-18T11:41:11.415Z,1.55
2024-01-18T11:43:57.453Z,2.00
2024-01-18T11:46:33.913Z,1.77
2024-01-18T11:49:00.837Z,1.70
2024-01-18T11:51:31.192Z,1.50
2024-01-18T11:54:04.154Z,1.52
2024-01-18T11:56:31.072Z,1.55
2024-01-18T11:59:03.355Z,1.40
2024-01-18T12:01:33.327Z,1.60
2024-01-18T12:04:00.334Z,1.10
2024-01-18T12:06:32.371Z,1.20
2024-01-18T12:09:00.236Z,1.20
2024-01-18T12:11:27.662Z,1.23
2024-01-18T12:13:54.614Z,1.10
2024-01-18T12:16:23.497Z,1.10
2024-01-18T12:18:55.704Z,1.00
2024-01-18T12:21:24.014Z,1.23
2024-01-18T12:23:51.018Z,1.10
2024-01-18T12:26:18.700Z,1.20
2024-01-18T12:28:48.195Z,1.58
2024-01-18T12:31:15.050Z,1.45
2024-01-18T12:33:41.923Z,1.00
2024-01-18T12:36:11.693Z,1.55
2024-01-18T12:38:38.480Z,1.05
2024-01-18T12:41:05.865Z,1.30
2024-01-18T12:43:33.314Z,1.30
2024-01-18T12:46:00.010Z,1.30
2024-01-18T12:48:28.464Z,1.33
2024-01-18T12:50:55.880Z,1.38
2024-01-18T12:53:25.136Z,1.45
2024-01-18T12:55:52.564Z,1.20
2024-01-18T12:58:19.068Z,1.38
2024-01-18T13:00:51.235Z,1.10
2024-01-18T13:03:18.135Z,1.38
2024-01-18T13:05:46.256Z,1.58
2024-01-18T13:08:13.385Z,1.20
2024-01-18T13:10:40.735Z,1.13
2024-01-18T13:13:10.490Z,1.33
2024-01-18T13:15:39.389Z,1.20
2024-01-18T13:18:10.595Z,1.20
2024-01-18T13:20:40.562Z,1.08
2024-01-18T13:23:10.805Z,1.13
2024-01-18T13:25:37.852Z,1.38
2024-01-18T13:28:05.877Z,1.25
2024-01-18T13:30:33.576Z,1.15
2024-01-18T13:33:05.907Z,1.13
2024-01-18T13:35:37.633Z,1.10
2024-01-18T13:38:07.066Z,1.38
2024-01-18T13:40:37.772Z,1.17
2024-01-18T13:43:08.317Z,1.10
2024-01-18T13:45:39.561Z,1.05
2024-01-18T13:48:07.370Z,1.08
2024-01-18T13:50:35.224Z,1.35
2024-01-18T13:53:05.512Z,1.30
2024-01-18T13:55:32.322Z,0.98
2024-01-18T13:58:01.314Z,0.93
2024-01-18T14:00:30.948Z,1.30
2024-01-18T14:02:59.932Z,0.80
2024-01-18T14:05:33.790Z,0.93
2024-01-18T14:08:18.539Z,0.82
2024-01-18T14:10:52.546Z,1.00
2024-01-18T14:13:45.888Z,0.85
2024-01-18T14:16:19.278Z,1.00
2024-01-18T14:18:50.986Z,0.95
2024-01-18T14:21:23.538Z,0.82
2024-01-18T14:23:55.218Z,0.98
2024-01-18T14:26:27.418Z,1.00
2024-01-18T14:29:02.948Z,0.85
2024-01-18T14:31:34.804Z,0.80
2024-01-18T14:34:03.932Z,0.98
2024-01-18T14:36:40.003Z,1.08
2024-01-18T14:39:25.936Z,1.00
2024-01-18T14:41:56.541Z,0.85
2024-01-18T14:44:35.803Z,0.80
2024-01-18T14:50:06.341Z,0.82
2024-01-18T14:52:38.718Z,0.80
2024-01-18T14:55:17.586Z,0.82
2024-01-18T14:57:50.016Z,0.63
2024-01-18T15:00:20.022Z,0.90
2024-01-18T15:02:49.875Z,1.00
2024-01-18T15:05:19.381Z,0.95
2024-01-18T15:07:47.167Z,0.90
2024-01-18T15:10:17.125Z,0.90
2024-01-18T15:12:49.773Z,1.20
2024-01-18T15:15:20.894Z,0.80
2024-01-18T15:18:03.237Z,1.00
2024-01-18T15:20:35.038Z,0.93
2024-01-18T15:23:03.607Z,0.80
2024-01-18T15:25:31.922Z,0.90
2024-01-18T15:28:00.072Z,1.10
2024-01-18T15:30:27.287Z,0.80
2024-01-18T15:32:54.275Z,0.98
2024-01-18T15:35:21.036Z,0.93
2024-01-18T15:37:48.965Z,0.80
2024-01-18T15:40:16.079Z,1.00
2024-01-18T15:42:45.031Z,0.80
2024-01-18T15:45:15.309Z,0.80
2024-01-18T15:47:44.243Z,1.05
2024-01-18T15:50:12.234Z,0.90
2024-01-18T15:52:42.468Z,0.70
2024-01-18T15:55:11.254Z,0.73
2024-01-18T15:57:38.395Z,0.80
2024-01-18T16:00:07.180Z,1.05
2024-01-18T16:02:34.171Z,0.70
2024-01-18T16:05:04.629Z,0.73
2024-01-18T16:07:33.731Z,0.90
2024-01-18T16:10:00.991Z,0.70
2024-01-18T16:12:27.667Z,0.83
2024-01-18T16:14:54.575Z,0.97
2024-01-18T16:17:21.506Z,1.07
2024-01-18T16:19:49.726Z,1.00
2024-01-18T16:22:16.505Z,0.90
2024-01-18T16:24:43.110Z,1.00
2024-01-18T16:27:09.837Z,1.20
2024-01-18T16:29:45.456Z,1.00
2024-01-18T16:32:21.890Z,0.97
2024-01-18T16:34:49.325Z,1.10
2024-01-18T16:37:16.478Z,1.00
2024-01-18T16:39:43.225Z,0.90
2024-01-18T16:42:21.357Z,0.73
2024-01-18T16:44:50.728Z,0.83
2024-01-18T16:47:17.452Z,1.07
2024-01-18T16:49:44.280Z,0.90
2024-01-18T16:52:11.299Z,0.80
2024-01-18T16:54:37.985Z,0.90
2024-01-18T16:57:13.245Z,0.80
2024-01-18T16:59:45.867Z,1.00
2024-01-18T17:02:12.581Z,0.90
2024-01-18T17:04:39.190Z,1.00
2024-01-18T17:07:08.143Z,1.00
2024-01-18T17:09:35.089Z,1.10
2024-01-18T17:12:04.802Z,0.77
2024-01-18T17:14:31.518Z,1.10
2024-01-18T17:16:58.329Z,1.00
2024-01-18T17:19:25.016Z,0.80
2024-01-18T17:21:51.737Z,0.90
2024-01-18T17:24:18.384Z,1.00
2024-01-18T17:26:46.482Z,1.03
2024-01-18T17:29:13.310Z,1.00
2024-01-18T17:31:40.145Z,1.17
2024-01-18T17:34:06.809Z,1.33
2024-01-18T17:36:35.319Z,1.03
2024-01-18T17:39:02.428Z,1.17
2024-01-18T17:41:30.028Z,1.10
2024-01-18T17:44:00.760Z,1.00
2024-01-18T17:46:30.950Z,1.23
2024-01-18T17:49:03.652Z,1.57
2024-01-18T17:51:30.816Z,1.13
2024-01-18T17:53:58.606Z,1.30
2024-01-18T17:56:25.501Z,1.13
2024-01-18T17:58:52.413Z,1.30
2024-01-18T18:01:19.165Z,1.20
2024-01-18T18:03:48.068Z,1.30
2024-01-18T18:06:16.658Z,1.40
2024-01-18T18:08:46.369Z,1.83
2024-01-18T18:11:16.753Z,1.10
2024-01-18T18:13:44.256Z,1.73
2024-01-18T18:16:20.124Z,2.30
2024-01-18T18:18:53.217Z,2.70
2024-01-18T18:21:26.456Z,3.20
2024-01-18T18:23:56.596Z,3.20
2024-01-18T18:26:27.754Z,2.57
2024-01-18T18:28:58.775Z,2.87
2024-01-18T18:31:25.928Z,3.20
2024-01-18T18:33:52.726Z,2.77
2024-01-18T18:36:21.870Z,2.73
2024-01-18T18:38:49.101Z,2.23
2024-01-18T18:41:15.937Z,2.50
2024-01-18T18:43:48.168Z,2.83
2024-01-18T18:46:19.444Z,3.17
2024-01-18T18:48:48.152Z,2.80
2024-01-18T18:51:14.875Z,2.90
2024-01-18T18:53:41.704Z,2.60
2024-01-18T18:56:09.292Z,2.50
2024-01-18T18:58:40.719Z,3.00
2024-01-18T19:01:12.442Z,2.60
2024-01-18T19:03:44.320Z,2.57
2024-01-18T19:06:16.745Z,2.97
2024-01-18T19:08:44.647Z,2.90
2024-01-18T19:11:11.791Z,2.73
2024-01-18T19:13:43.535Z,2.57
2024-01-18T19:16:12.733Z,2.80
2024-01-18T19:18:41.444Z,3.10
2024-01-18T19:21:08.487Z,2.83
2024-01-18T19:23:35.381Z,2.73
2024-01-18T19:26:05.167Z,3.10
2024-01-18T19:28:31.724Z,3.03
2024-01-18T19:30:58.357Z,3.30
2024-01-18T19:33:24.970Z,2.60
2024-01-18T19:35:51.599Z,3.33
2024-01-18T19:38:18.247Z,3.20
2024-01-18T19:40:44.978Z,3.40
2024-01-18T19:43:11.840Z,3.33
2024-01-18T19:45:38.481Z,3.30
2024-01-18T19:48:06.050Z,3.33
2024-01-18T19:50:33.858Z,3.00
2024-01-18T19:53:00.851Z,3.00
2024-01-18T19:55:27.458Z,4.17
2024-01-18T19:57:54.412Z,3.67
2024-01-18T20:00:22.257Z,4.57
2024-01-18T20:02:49.037Z,4.17
2024-01-18T20:05:16.329Z,4.30
2024-01-18T20:07:42.838Z,4.30
2024-01-18T20:10:11.119Z,3.90
2024-01-18T20:12:37.748Z,4.13
2024-01-18T20:15:04.790Z,4.20
2024-01-18T20:17:31.428Z,3.77
2024-01-18T20:19:58.764Z,4.37
2024-01-18T20:22:26.653Z,4.43
2024-01-18T20:24:53.290Z,3.73
2024-01-18T20:27:20.071Z,3.87
2024-01-18T20:29:47.663Z,4.40
2024-01-18T20:32:14.480Z,4.27
2024-01-18T20:34:41.905Z,4.67
2024-01-18T20:37:09.478Z,4.60
2024-01-18T20:39:36.753Z,5.57
2024-01-18T20:42:06.573Z,5.30
2024-01-18T20:44:33.438Z,5.60
2024-01-18T20:47:00.095Z,5.87
2024-01-18T20:49:26.802Z,5.70
2024-01-18T20:51:53.407Z,6.17
2024-01-18T20:54:20.191Z,6.40
2024-01-18T20:56:46.922Z,6.00
2024-01-18T20:59:13.769Z,5.57
2024-01-18T21:01:40.299Z,5.73
2024-01-18T21:04:06.958Z,5.93
2024-01-18T21:06:33.509Z,5.37
2024-01-18T21:09:00.131Z,5.87
2024-01-18T21:11:27.273Z,5.67
2024-01-18T21:13:53.881Z,5.97
2024-01-18T21:16:20.511Z,5.80
2024-01-18T21:18:49.853Z,6.10
2024-01-18T21:21:17.141Z,5.93
2024-01-18T21:23:43.816Z,5.97
2024-01-18T21:26:10.352Z,5.93
2024-01-18T21:28:36.858Z,5.87
2024-01-18T21:31:04.298Z,5.97
2024-01-18T21:33:30.920Z,6.30
2024-01-18T21:35:57.509Z,6.20
2024-01-18T21:38:24.233Z,5.83
2024-01-18T21:40:50.847Z,5.83
2024-01-18T21:43:17.361Z,6.53
2024-01-18T21:45:43.975Z,6.17
2024-01-18T21:48:10.779Z,6.60
2024-01-18T21:50:37.958Z,6.03
2024-01-18T21:53:05.173Z,6.40
2024-01-18T21:55:32.994Z,5.97
2024-01-18T21:57:59.646Z,6.73
2024-01-18T22:00:26.735Z,6.33
2024-01-18T22:02:53.673Z,7.13
2024-01-18T22:05:20.295Z,6.00
2024-01-18T22:07:47.167Z,6.33
2024-01-18T22:10:13.912Z,6.70
2024-01-18T22:12:40.641Z,5.90
2024-01-18T22:15:07.897Z,5.80
2024-01-18T22:17:36.522Z,6.47
2024-01-18T22:20:05.682Z,6.20
2024-01-18T22:22:33.056Z,5.87
2024-01-18T22:24:59.855Z,6.10
2024-01-18T22:27:28.011Z,6.53
2024-01-18T22:29:54.857Z,6.63
2024-01-18T22:32:21.460Z,6.43
2024-01-18T22:34:51.973Z,7.23
2024-01-18T22:37:19.486Z,6.57
2024-01-18T22:39:46.054Z,6.57
2024-01-18T22:42:12.622Z,6.43
2024-01-18T22:44:39.224Z,6.80
2024-01-18T22:47:06.552Z,6.63
2024-01-18T22:49:33.319Z,6.53
2024-01-18T22:51:59.940Z,6.87
2024-01-18T22:54:26.760Z,7.17
2024-01-18T22:56:53.500Z,7.00
2024-01-18T22:59:20.138Z,6.47
2024-01-18T23:01:46.785Z,7.10
2024-01-18T23:04:14.794Z,6.70
2024-01-18T23:06:42.637Z,6.47
2024-01-18T23:09:11.208Z,6.33
2024-01-18T23:11:38.122Z,6.43
2024-01-18T23:14:04.784Z,6.13
2024-01-18T23:16:31.343Z,6.30
2024-01-18T23:18:57.815Z,6.53
2024-01-18T23:21:24.406Z,6.73
2024-01-18T23:23:51.591Z,6.63
2024-01-18T23:26:19.013Z,6.27
2024-01-18T23:28:45.793Z,6.30
2024-01-18T23:31:12.473Z,6.50
2024-01-18T23:33:39.010Z,6.87
2024-01-18T23:36:05.827Z,6.63
2024-01-18T23:38:32.534Z,5.97
2024-01-18T23:40:59.091Z,6.87
2024-01-18T23:43:25.552Z,6.50
2024-01-18T23:45:52.031Z,6.60
2024-01-18T23:48:18.589Z,6.90
2024-01-18T23:50:45.261Z,6.37
2024-01-18T23:53:13.868Z,6.23
2024-01-18T23:55:40.477Z,6.47
2024-01-18T23:58:07.010Z,6.63
